sensor_id;sensor_type;location;lat;lon;timestamp;temperature;humidity
17421;DHT22;8828;48.800;9.540;2023-03-05T00:01:23;4.60;99.90
17421;DHT22;8828;48.800;9.540;2023-03-05T00:03:54;4.60;99.90
17421;DHT22;8828;48.800;9.540;2023-03-05T00:06:25;4.60;99.90
17421;DHT22;8828;48.800;9.540;2023-03-05T00:08:54;4.60;99.90
17421;DHT22;8828;48.800;9.540;2023-03-05T00:11:24;4.70;99.90
17421;DHT22;8828;48.800;9.540;2023-03-05T00:13:55;4.70;99.90
17421;DHT22;8828;48.800;9.540;2023-03-05T00:16:23;4.70;99.90
17421;DHT22;8828;48.800;9.540;2023-03-05T00:18:55;4.70;99.90
17421;DHT22;8828;48.800;9.540;2023-03-05T00:21:25;4.70;99.90
17421;DHT22;8828;48.800;9.540;2023-03-05T00:23:54;4.70;99.90
17421;DHT22;8828;48.800;9.540;2023-03-05T00:26:24;4.70;99.90
17421;DHT22;8828;48.800;9.540;2023-03-05T00:28:54;4.70;99.90
17421;DHT22;8828;48.800;9.540;2023-03-05T00:31:25;4.70;99.90
17421;DHT22;8828;48.800;9.540;2023-03-05T00:33:58;4.70;99.90
17421;DHT22;8828;48.800;9.540;2023-03-05T00:36:27;4.60;99.90
17421;DHT22;8828;48.800;9.540;2023-03-05T00:38:55;4.60;99.90
17421;DHT22;8828;48.800;9.540;2023-03-05T00:41:24;4.60;99.90
17421;DHT22;8828;48.800;9.540;2023-03-05T00:43:52;4.60;99.90
17421;DHT22;8828;48.800;9.540;2023-03-05T00:46:20;4.60;99.90
17421;DHT22;8828;48.800;9.540;2023-03-05T00:48:49;4.60;99.90
17421;DHT22;8828;48.800;9.540;2023-03-05T00:51:18;4.60;99.90
17421;DHT22;8828;48.800;9.540;2023-03-05T00:53:46;4.60;99.90
17421;DHT22;8828;48.800;9.540;2023-03-05T00:56:14;4.60;99.90
17421;DHT22;8828;48.800;9.540;2023-03-05T00:58:42;4.60;99.90
17421;DHT22;8828;48.800;9.540;2023-03-05T01:01:10;4.60;99.90
17421;DHT22;8828;48.800;9.540;2023-03-05T01:03:38;4.60;99.90
17421;DHT22;8828;48.800;9.540;2023-03-05T01:06:08;4.60;99.90
17421;DHT22;8828;48.800;9.540;2023-03-05T01:08:38;4.50;99.90
17421;DHT22;8828;48.800;9.540;2023-03-05T01:11:07;4.50;99.90
17421;DHT22;8828;48.800;9.540;2023-03-05T01:13:36;4.50;99.90
17421;DHT22;8828;48.800;9.540;2023-03-05T01:16:04;4.50;99.90
17421;DHT22;8828;48.800;9.540;2023-03-05T01:18:33;4.50;99.90
17421;DHT22;8828;48.800;9.540;2023-03-05T01:21:02;4.50;99.90
17421;DHT22;8828;48.800;9.540;2023-03-05T01:23:31;4.50;99.90
17421;DHT22;8828;48.800;9.540;2023-03-05T01:26:02;4.60;99.90
17421;DHT22;8828;48.800;9.540;2023-03-05T01:28:30;4.60;99.90
17421;DHT22;8828;48.800;9.540;2023-03-05T01:30:58;4.60;99.90
17421;DHT22;8828;48.800;9.540;2023-03-05T01:33:26;4.50;99.90
17421;DHT22;8828;48.800;9.540;2023-03-05T01:35:54;4.50;99.90
17421;DHT22;8828;48.800;9.540;2023-03-05T01:38:22;4.50;99.90
17421;DHT22;8828;48.800;9.540;2023-03-05T01:40:50;4.50;99.90
17421;DHT22;8828;48.800;9.540;2023-03-05T01:43:24;4.50;99.90
17421;DHT22;8828;48.800;9.540;2023-03-05T01:46:29;4.50;99.90
17421;DHT22;8828;48.800;9.540;2023-03-05T01:49:02;4.50;99.90
17421;DHT22;8828;48.800;9.540;2023-03-05T01:51:35;4.50;99.90
17421;DHT22;8828;48.800;9.540;2023-03-05T01:54:05;4.50;99.90
17421;DHT22;8828;48.800;9.540;2023-03-05T01:56:34;4.50;99.90
17421;DHT22;8828;48.800;9.540;2023-03-05T01:59:04;4.50;99.90
17421;DHT22;8828;48.800;9.540;2023-03-05T02:01:36;4.50;99.90
17421;DHT22;8828;48.800;9.540;2023-03-05T02:04:07;4.50;99.90
17421;DHT22;8828;48.800;9.540;2023-03-05T02:06:36;4.50;99.90
17421;DHT22;8828;48.800;9.540;2023-03-05T02:09:04;4.50;99.90
17421;DHT22;8828;48.800;9.540;2023-03-05T02:11:32;4.50;99.90
17421;DHT22;8828;48.800;9.540;2023-03-05T02:14:01;4.50;99.90
17421;DHT22;8828;48.800;9.540;2023-03-05T02:16:31;4.50;99.90
17421;DHT22;8828;48.800;9.540;2023-03-05T02:19:03;4.50;99.90
17421;DHT22;8828;48.800;9.540;2023-03-05T02:21:38;4.50;99.90
17421;DHT22;8828;48.800;9.540;2023-03-05T02:24:10;4.50;99.90
17421;DHT22;8828;48.800;9.540;2023-03-05T02:26:38;4.50;99.90
17421;DHT22;8828;48.800;9.540;2023-03-05T02:29:08;4.50;99.90
17421;DHT22;8828;48.800;9.540;2023-03-05T02:31:37;4.50;99.90
17421;DHT22;8828;48.800;9.540;2023-03-05T02:34:05;4.50;99.90
17421;DHT22;8828;48.800;9.540;2023-03-05T02:36:33;4.50;99.90
17421;DHT22;8828;48.800;9.540;2023-03-05T02:39:03;4.50;99.90
17421;DHT22;8828;48.800;9.540;2023-03-05T02:41:31;4.40;99.90
17421;DHT22;8828;48.800;9.540;2023-03-05T02:43:59;4.40;99.90
17421;DHT22;8828;48.800;9.540;2023-03-05T02:46:27;4.40;99.90
17421;DHT22;8828;48.800;9.540;2023-03-05T02:48:55;4.40;99.90
17421;DHT22;8828;48.800;9.540;2023-03-05T02:51:23;4.40;99.90
17421;DHT22;8828;48.800;9.540;2023-03-05T02:53:51;4.40;99.90
17421;DHT22;8828;48.800;9.540;2023-03-05T02:56:20;4.50;99.90
17421;DHT22;8828;48.800;9.540;2023-03-05T02:58:48;4.50;99.90
17421;DHT22;8828;48.800;9.540;2023-03-05T03:01:16;4.40;99.90
17421;DHT22;8828;48.800;9.540;2023-03-05T03:03:44;4.40;99.90
17421;DHT22;8828;48.800;9.540;2023-03-05T03:06:12;4.40;99.90
17421;DHT22;8828;48.800;9.540;2023-03-05T03:08:40;4.40;99.90
17421;DHT22;8828;48.800;9.540;2023-03-05T03:11:09;4.40;99.90
17421;DHT22;8828;48.800;9.540;2023-03-05T03:13:39;4.40;99.90
17421;DHT22;8828;48.800;9.540;2023-03-05T03:16:09;4.50;99.90
17421;DHT22;8828;48.800;9.540;2023-03-05T03:18:38;4.50;99.90
17421;DHT22;8828;48.800;9.540;2023-03-05T03:21:06;4.40;99.90
17421;DHT22;8828;48.800;9.540;2023-03-05T03:23:34;4.50;99.90
17421;DHT22;8828;48.800;9.540;2023-03-05T03:26:02;4.40;99.90
17421;DHT22;8828;48.800;9.540;2023-03-05T03:28:30;4.50;99.90
17421;DHT22;8828;48.800;9.540;2023-03-05T03:31:00;4.40;99.90
17421;DHT22;8828;48.800;9.540;2023-03-05T03:33:28;4.40;99.90
17421;DHT22;8828;48.800;9.540;2023-03-05T03:35:56;4.40;99.90
17421;DHT22;8828;48.800;9.540;2023-03-05T03:38:24;4.40;99.90
17421;DHT22;8828;48.800;9.540;2023-03-05T03:40:52;4.40;99.90
17421;DHT22;8828;48.800;9.540;2023-03-05T03:43:20;4.40;99.90
17421;DHT22;8828;48.800;9.540;2023-03-05T03:45:48;4.40;99.90
17421;DHT22;8828;48.800;9.540;2023-03-05T03:48:17;4.40;99.90
17421;DHT22;8828;48.800;9.540;2023-03-05T03:50:45;4.40;99.90
17421;DHT22;8828;48.800;9.540;2023-03-05T03:53:13;4.40;99.90
17421;DHT22;8828;48.800;9.540;2023-03-05T03:55:43;4.40;99.90
17421;DHT22;8828;48.800;9.540;2023-03-05T03:58:12;4.40;99.90
17421;DHT22;8828;48.800;9.540;2023-03-05T04:00:40;4.40;99.90
17421;DHT22;8828;48.800;9.540;2023-03-05T04:03:08;4.40;99.90
17421;DHT22;8828;48.800;9.540;2023-03-05T04:05:37;4.40;99.90
17421;DHT22;8828;48.800;9.540;2023-03-05T04:08:05;4.40;99.90
17421;DHT22;8828;48.800;9.540;2023-03-05T04:10:37;4.40;99.90
17421;DHT22;8828;48.800;9.540;2023-03-05T04:13:05;4.40;99.90
17421;DHT22;8828;48.800;9.540;2023-03-05T04:15:34;4.40;99.90
17421;DHT22;8828;48.800;9.540;2023-03-05T04:18:02;4.40;99.90
17421;DHT22;8828;48.800;9.540;2023-03-05T04:20:30;4.40;99.90
17421;DHT22;8828;48.800;9.540;2023-03-05T04:22:59;4.40;99.90
17421;DHT22;8828;48.800;9.540;2023-03-05T04:25:27;4.40;99.90
17421;DHT22;8828;48.800;9.540;2023-03-05T04:27:55;4.40;99.90
17421;DHT22;8828;48.800;9.540;2023-03-05T04:30:23;4.40;99.90
17421;DHT22;8828;48.800;9.540;2023-03-05T04:32:51;4.40;99.90
17421;DHT22;8828;48.800;9.540;2023-03-05T04:35:19;4.40;99.90
17421;DHT22;8828;48.800;9.540;2023-03-05T04:37:47;4.40;99.90
17421;DHT22;8828;48.800;9.540;2023-03-05T04:40:17;4.40;99.90
17421;DHT22;8828;48.800;9.540;2023-03-05T04:42:45;4.30;99.90
17421;DHT22;8828;48.800;9.540;2023-03-05T04:45:13;4.40;99.90
17421;DHT22;8828;48.800;9.540;2023-03-05T04:47:43;4.40;99.90
17421;DHT22;8828;48.800;9.540;2023-03-05T04:50:12;4.40;99.90
17421;DHT22;8828;48.800;9.540;2023-03-05T04:52:41;4.40;99.90
17421;DHT22;8828;48.800;9.540;2023-03-05T04:55:10;4.40;99.90
17421;DHT22;8828;48.800;9.540;2023-03-05T04:57:39;4.40;99.90
17421;DHT22;8828;48.800;9.540;2023-03-05T05:00:11;4.40;99.90
17421;DHT22;8828;48.800;9.540;2023-03-05T05:02:40;4.40;99.90
17421;DHT22;8828;48.800;9.540;2023-03-05T05:05:09;4.40;99.90
17421;DHT22;8828;48.800;9.540;2023-03-05T05:07:38;4.40;99.90
17421;DHT22;8828;48.800;9.540;2023-03-05T05:10:08;4.40;99.90
17421;DHT22;8828;48.800;9.540;2023-03-05T05:12:37;4.40;99.90
17421;DHT22;8828;48.800;9.540;2023-03-05T05:15:08;4.40;99.90
17421;DHT22;8828;48.800;9.540;2023-03-05T05:17:36;4.40;99.90
17421;DHT22;8828;48.800;9.540;2023-03-05T05:20:05;4.40;99.90
17421;DHT22;8828;48.800;9.540;2023-03-05T05:22:34;4.40;99.90
17421;DHT22;8828;48.800;9.540;2023-03-05T05:25:02;4.40;99.90
17421;DHT22;8828;48.800;9.540;2023-03-05T05:27:31;4.40;99.90
17421;DHT22;8828;48.800;9.540;2023-03-05T05:29:59;4.40;99.90
17421;DHT22;8828;48.800;9.540;2023-03-05T05:32:28;4.40;99.90
17421;DHT22;8828;48.800;9.540;2023-03-05T05:34:57;4.40;99.90
17421;DHT22;8828;48.800;9.540;2023-03-05T05:37:25;4.40;99.90
17421;DHT22;8828;48.800;9.540;2023-03-05T05:39:53;4.40;99.90
17421;DHT22;8828;48.800;9.540;2023-03-05T05:42:23;4.40;99.90
17421;DHT22;8828;48.800;9.540;2023-03-05T05:44:51;4.40;99.90
17421;DHT22;8828;48.800;9.540;2023-03-05T05:47:21;4.40;99.90
17421;DHT22;8828;48.800;9.540;2023-03-05T05:49:50;4.40;99.90
17421;DHT22;8828;48.800;9.540;2023-03-05T05:52:18;4.40;99.90
17421;DHT22;8828;48.800;9.540;2023-03-05T05:54:46;4.40;99.90
17421;DHT22;8828;48.800;9.540;2023-03-05T05:57:14;4.40;99.90
17421;DHT22;8828;48.800;9.540;2023-03-05T05:59:42;4.40;99.90
17421;DHT22;8828;48.800;9.540;2023-03-05T06:02:10;4.40;99.90
17421;DHT22;8828;48.800;9.540;2023-03-05T06:04:38;4.40;99.90
17421;DHT22;8828;48.800;9.540;2023-03-05T06:07:08;4.40;99.90
17421;DHT22;8828;48.800;9.540;2023-03-05T06:09:36;4.40;99.90
17421;DHT22;8828;48.800;9.540;2023-03-05T06:12:05;4.40;99.90
17421;DHT22;8828;48.800;9.540;2023-03-05T06:14:33;4.40;99.90
17421;DHT22;8828;48.800;9.540;2023-03-05T06:17:01;4.40;99.90
17421;DHT22;8828;48.800;9.540;2023-03-05T06:19:29;4.40;99.90
17421;DHT22;8828;48.800;9.540;2023-03-05T06:21:57;4.40;99.90
17421;DHT22;8828;48.800;9.540;2023-03-05T06:24:26;4.40;99.90
17421;DHT22;8828;48.800;9.540;2023-03-05T06:26:54;4.40;99.90
17421;DHT22;8828;48.800;9.540;2023-03-05T06:29:22;4.50;99.90
17421;DHT22;8828;48.800;9.540;2023-03-05T06:31:50;4.50;99.90
17421;DHT22;8828;48.800;9.540;2023-03-05T06:34:18;4.50;99.90
17421;DHT22;8828;48.800;9.540;2023-03-05T06:36:46;4.50;99.90
17421;DHT22;8828;48.800;9.540;2023-03-05T06:39:14;4.50;99.90
17421;DHT22;8828;48.800;9.540;2023-03-05T06:41:43;4.50;99.90
17421;DHT22;8828;48.800;9.540;2023-03-05T06:44:11;4.60;99.90
17421;DHT22;8828;48.800;9.540;2023-03-05T06:46:39;4.60;99.90
17421;DHT22;8828;48.800;9.540;2023-03-05T06:49:07;4.60;99.90
17421;DHT22;8828;48.800;9.540;2023-03-05T06:51:38;4.60;99.90
17421;DHT22;8828;48.800;9.540;2023-03-05T06:54:08;4.60;99.90
17421;DHT22;8828;48.800;9.540;2023-03-05T06:56:37;4.60;99.90
17421;DHT22;8828;48.800;9.540;2023-03-05T06:59:07;4.60;99.90
17421;DHT22;8828;48.800;9.540;2023-03-05T07:01:36;4.60;99.90
17421;DHT22;8828;48.800;9.540;2023-03-05T07:04:04;4.60;99.90
17421;DHT22;8828;48.800;9.540;2023-03-05T07:06:35;4.60;99.90
17421;DHT22;8828;48.800;9.540;2023-03-05T07:09:04;4.70;99.90
17421;DHT22;8828;48.800;9.540;2023-03-05T07:11:33;4.60;99.90
17421;DHT22;8828;48.800;9.540;2023-03-05T07:14:02;4.70;99.90
17421;DHT22;8828;48.800;9.540;2023-03-05T07:16:33;4.70;99.90
17421;DHT22;8828;48.800;9.540;2023-03-05T07:19:03;4.70;99.90
17421;DHT22;8828;48.800;9.540;2023-03-05T07:21:33;4.70;99.90
17421;DHT22;8828;48.800;9.540;2023-03-05T07:24:05;4.70;99.90
17421;DHT22;8828;48.800;9.540;2023-03-05T07:26:34;4.70;99.90
17421;DHT22;8828;48.800;9.540;2023-03-05T07:29:02;4.70;99.90
17421;DHT22;8828;48.800;9.540;2023-03-05T07:31:32;4.80;99.90
17421;DHT22;8828;48.800;9.540;2023-03-05T07:34:01;4.80;99.90
17421;DHT22;8828;48.800;9.540;2023-03-05T07:36:30;4.80;99.90
17421;DHT22;8828;48.800;9.540;2023-03-05T07:39:00;4.80;99.90
17421;DHT22;8828;48.800;9.540;2023-03-05T07:41:30;4.80;99.90
17421;DHT22;8828;48.800;9.540;2023-03-05T07:43:58;4.80;99.90
17421;DHT22;8828;48.800;9.540;2023-03-05T07:46:28;4.80;99.90
17421;DHT22;8828;48.800;9.540;2023-03-05T07:48:58;4.80;99.90
17421;DHT22;8828;48.800;9.540;2023-03-05T07:51:27;4.90;99.90
17421;DHT22;8828;48.800;9.540;2023-03-05T07:53:56;4.90;99.90
17421;DHT22;8828;48.800;9.540;2023-03-05T07:56:26;4.90;99.90
17421;DHT22;8828;48.800;9.540;2023-03-05T07:58:57;5.00;99.90
17421;DHT22;8828;48.800;9.540;2023-03-05T08:01:25;5.00;99.90
17421;DHT22;8828;48.800;9.540;2023-03-05T08:03:53;5.00;99.90
17421;DHT22;8828;48.800;9.540;2023-03-05T08:06:22;5.00;99.90
17421;DHT22;8828;48.800;9.540;2023-03-05T08:08:50;5.00;99.90
17421;DHT22;8828;48.800;9.540;2023-03-05T08:11:18;5.00;99.90
17421;DHT22;8828;48.800;9.540;2023-03-05T08:13:46;5.00;99.90
17421;DHT22;8828;48.800;9.540;2023-03-05T08:16:16;5.00;99.90
17421;DHT22;8828;48.800;9.540;2023-03-05T08:18:45;5.00;99.90
17421;DHT22;8828;48.800;9.540;2023-03-05T08:21:17;5.00;99.90
17421;DHT22;8828;48.800;9.540;2023-03-05T08:23:47;5.00;99.90
17421;DHT22;8828;48.800;9.540;2023-03-05T08:26:17;5.00;99.90
17421;DHT22;8828;48.800;9.540;2023-03-05T08:28:46;5.10;99.90
17421;DHT22;8828;48.800;9.540;2023-03-05T08:31:16;5.10;99.90
17421;DHT22;8828;48.800;9.540;2023-03-05T08:33:44;5.10;99.90
17421;DHT22;8828;48.800;9.540;2023-03-05T08:36:12;5.10;99.90
17421;DHT22;8828;48.800;9.540;2023-03-05T08:38:40;5.10;99.90
17421;DHT22;8828;48.800;9.540;2023-03-05T08:41:12;5.20;99.90
17421;DHT22;8828;48.800;9.540;2023-03-05T08:43:40;5.20;99.90
17421;DHT22;8828;48.800;9.540;2023-03-05T08:46:09;5.20;99.90
17421;DHT22;8828;48.800;9.540;2023-03-05T08:48:38;5.30;99.90
17421;DHT22;8828;48.800;9.540;2023-03-05T08:51:07;5.30;99.90
17421;DHT22;8828;48.800;9.540;2023-03-05T08:53:35;5.30;99.90
17421;DHT22;8828;48.800;9.540;2023-03-05T08:56:04;5.40;99.90
17421;DHT22;8828;48.800;9.540;2023-03-05T08:58:33;5.50;99.90
17421;DHT22;8828;48.800;9.540;2023-03-05T09:01:02;5.50;99.90
17421;DHT22;8828;48.800;9.540;2023-03-05T09:03:30;5.50;99.90
17421;DHT22;8828;48.800;9.540;2023-03-05T09:05:59;5.60;99.90
17421;DHT22;8828;48.800;9.540;2023-03-05T09:08:28;5.60;99.90
17421;DHT22;8828;48.800;9.540;2023-03-05T09:10:56;5.70;99.90
17421;DHT22;8828;48.800;9.540;2023-03-05T09:13:24;5.70;99.90
17421;DHT22;8828;48.800;9.540;2023-03-05T09:15:56;5.70;99.90
17421;DHT22;8828;48.800;9.540;2023-03-05T09:18:25;5.70;99.90
17421;DHT22;8828;48.800;9.540;2023-03-05T09:20:53;5.80;99.90
17421;DHT22;8828;48.800;9.540;2023-03-05T09:23:22;5.80;99.90
17421;DHT22;8828;48.800;9.540;2023-03-05T09:25:50;5.70;99.90
17421;DHT22;8828;48.800;9.540;2023-03-05T09:28:18;5.70;99.90
17421;DHT22;8828;48.800;9.540;2023-03-05T09:30:46;5.70;99.90
17421;DHT22;8828;48.800;9.540;2023-03-05T09:33:15;5.70;99.90
17421;DHT22;8828;48.800;9.540;2023-03-05T09:35:43;5.80;99.90
17421;DHT22;8828;48.800;9.540;2023-03-05T09:38:11;5.70;99.90
17421;DHT22;8828;48.800;9.540;2023-03-05T09:40:44;5.70;99.90
17421;DHT22;8828;48.800;9.540;2023-03-05T09:43:24;5.70;99.90
17421;DHT22;8828;48.800;9.540;2023-03-05T09:46:01;5.70;99.90
17421;DHT22;8828;48.800;9.540;2023-03-05T09:48:47;5.70;99.90
17421;DHT22;8828;48.800;9.540;2023-03-05T09:51:21;5.70;99.90
17421;DHT22;8828;48.800;9.540;2023-03-05T09:53:53;5.70;99.90
17421;DHT22;8828;48.800;9.540;2023-03-05T09:56:25;5.70;99.90
17421;DHT22;8828;48.800;9.540;2023-03-05T09:58:57;5.70;99.90
17421;DHT22;8828;48.800;9.540;2023-03-05T10:01:29;5.70;99.90
17421;DHT22;8828;48.800;9.540;2023-03-05T10:04:08;5.70;99.90
17421;DHT22;8828;48.800;9.540;2023-03-05T10:06:42;5.70;99.90
17421;DHT22;8828;48.800;9.540;2023-03-05T10:09:16;5.70;99.90
17421;DHT22;8828;48.800;9.540;2023-03-05T10:11:54;5.80;99.90
17421;DHT22;8828;48.800;9.540;2023-03-05T10:14:26;5.80;99.90
17421;DHT22;8828;48.800;9.540;2023-03-05T10:17:18;5.90;99.90
17421;DHT22;8828;48.800;9.540;2023-03-05T10:20:13;5.90;99.90
17421;DHT22;8828;48.800;9.540;2023-03-05T10:23:00;6.00;99.90
17421;DHT22;8828;48.800;9.540;2023-03-05T10:25:46;6.00;99.90
17421;DHT22;8828;48.800;9.540;2023-03-05T10:28:21;6.10;99.90
17421;DHT22;8828;48.800;9.540;2023-03-05T10:31:12;6.20;99.90
17421;DHT22;8828;48.800;9.540;2023-03-05T10:33:51;6.20;99.90
17421;DHT22;8828;48.800;9.540;2023-03-05T10:36:36;6.30;99.90
17421;DHT22;8828;48.800;9.540;2023-03-05T10:39:39;6.30;99.90
17421;DHT22;8828;48.800;9.540;2023-03-05T10:42:18;6.30;99.90
17421;DHT22;8828;48.800;9.540;2023-03-05T10:44:52;6.30;99.90
17421;DHT22;8828;48.800;9.540;2023-03-05T10:47:24;6.30;99.90
17421;DHT22;8828;48.800;9.540;2023-03-05T10:49:56;6.40;99.90
17421;DHT22;8828;48.800;9.540;2023-03-05T10:52:31;6.40;99.90
17421;DHT22;8828;48.800;9.540;2023-03-05T10:55:00;6.40;99.90
17421;DHT22;8828;48.800;9.540;2023-03-05T10:57:31;6.50;99.90
17421;DHT22;8828;48.800;9.540;2023-03-05T11:00:10;6.40;99.90
17421;DHT22;8828;48.800;9.540;2023-03-05T11:02:56;6.40;99.90
17421;DHT22;8828;48.800;9.540;2023-03-05T11:05:45;6.40;99.90
17421;DHT22;8828;48.800;9.540;2023-03-05T11:08:27;6.30;99.90
17421;DHT22;8828;48.800;9.540;2023-03-05T11:11:14;6.30;99.90
17421;DHT22;8828;48.800;9.540;2023-03-05T11:13:54;6.30;99.90
17421;DHT22;8828;48.800;9.540;2023-03-05T11:16:24;6.30;99.90
17421;DHT22;8828;48.800;9.540;2023-03-05T11:19:15;6.30;99.90
17421;DHT22;8828;48.800;9.540;2023-03-05T11:21:45;6.30;99.90
17421;DHT22;8828;48.800;9.540;2023-03-05T11:24:16;6.40;99.90
17421;DHT22;8828;48.800;9.540;2023-03-05T11:26:46;6.40;99.90
17421;DHT22;8828;48.800;9.540;2023-03-05T11:29:20;6.50;99.90
17421;DHT22;8828;48.800;9.540;2023-03-05T11:31:49;6.50;99.90
17421;DHT22;8828;48.800;9.540;2023-03-05T11:34:23;6.60;99.90
17421;DHT22;8828;48.800;9.540;2023-03-05T11:37:01;6.70;99.90
17421;DHT22;8828;48.800;9.540;2023-03-05T11:39:32;6.80;99.90
17421;DHT22;8828;48.800;9.540;2023-03-05T11:42:05;6.90;99.90
17421;DHT22;8828;48.800;9.540;2023-03-05T11:44:40;6.90;99.90
17421;DHT22;8828;48.800;9.540;2023-03-05T11:47:17;7.00;99.90
17421;DHT22;8828;48.800;9.540;2023-03-05T11:49:53;7.00;99.90
17421;DHT22;8828;48.800;9.540;2023-03-05T11:52:25;6.90;99.90
17421;DHT22;8828;48.800;9.540;2023-03-05T11:55:03;6.90;99.90
17421;DHT22;8828;48.800;9.540;2023-03-05T11:57:38;6.90;99.90
17421;DHT22;8828;48.800;9.540;2023-03-05T12:00:14;6.80;99.90
17421;DHT22;8828;48.800;9.540;2023-03-05T12:02:42;6.80;99.90
17421;DHT22;8828;48.800;9.540;2023-03-05T12:05:14;6.80;99.90
17421;DHT22;8828;48.800;9.540;2023-03-05T12:07:47;6.70;99.90
17421;DHT22;8828;48.800;9.540;2023-03-05T12:10:19;6.70;99.90
17421;DHT22;8828;48.800;9.540;2023-03-05T12:12:53;6.70;99.90
17421;DHT22;8828;48.800;9.540;2023-03-05T12:18:25;6.70;99.90
17421;DHT22;8828;48.800;9.540;2023-03-05T12:21:01;6.70;99.90
17421;DHT22;8828;48.800;9.540;2023-03-05T12:23:44;6.70;99.90
17421;DHT22;8828;48.800;9.540;2023-03-05T12:26:14;6.70;99.90
17421;DHT22;8828;48.800;9.540;2023-03-05T12:28:54;6.70;99.90
17421;DHT22;8828;48.800;9.540;2023-03-05T12:31:33;6.70;99.90
17421;DHT22;8828;48.800;9.540;2023-03-05T12:38:01;6.70;99.90
17421;DHT22;8828;48.800;9.540;2023-03-05T12:40:49;6.70;99.90
17421;DHT22;8828;48.800;9.540;2023-03-05T12:43:30;6.70;99.90
17421;DHT22;8828;48.800;9.540;2023-03-05T12:46:21;6.70;99.90
17421;DHT22;8828;48.800;9.540;2023-03-05T12:48:50;6.70;99.90
17421;DHT22;8828;48.800;9.540;2023-03-05T12:51:42;6.70;99.90
17421;DHT22;8828;48.800;9.540;2023-03-05T12:54:28;6.70;99.90
17421;DHT22;8828;48.800;9.540;2023-03-05T12:56:58;6.70;99.90
17421;DHT22;8828;48.800;9.540;2023-03-05T12:59:40;6.70;99.90
17421;DHT22;8828;48.800;9.540;2023-03-05T13:02:19;6.60;99.90
17421;DHT22;8828;48.800;9.540;2023-03-05T13:04:49;6.60;99.90
17421;DHT22;8828;48.800;9.540;2023-03-05T13:07:18;6.60;99.90
17421;DHT22;8828;48.800;9.540;2023-03-05T13:09:54;6.60;99.90
17421;DHT22;8828;48.800;9.540;2023-03-05T13:12:23;6.60;99.90
17421;DHT22;8828;48.800;9.540;2023-03-05T13:15:03;6.50;99.90
17421;DHT22;8828;48.800;9.540;2023-03-05T13:17:37;6.50;99.90
17421;DHT22;8828;48.800;9.540;2023-03-05T13:20:27;6.50;99.90
17421;DHT22;8828;48.800;9.540;2023-03-05T13:23:14;6.50;99.90
17421;DHT22;8828;48.800;9.540;2023-03-05T13:25:44;6.50;99.90
17421;DHT22;8828;48.800;9.540;2023-03-05T13:28:15;6.50;99.90
17421;DHT22;8828;48.800;9.540;2023-03-05T13:30:50;6.60;99.90
17421;DHT22;8828;48.800;9.540;2023-03-05T13:33:23;6.60;99.90
17421;DHT22;8828;48.800;9.540;2023-03-05T13:35:52;6.60;99.90
17421;DHT22;8828;48.800;9.540;2023-03-05T13:38:27;6.60;99.90
17421;DHT22;8828;48.800;9.540;2023-03-05T13:41:17;6.60;99.90
17421;DHT22;8828;48.800;9.540;2023-03-05T13:43:47;6.60;99.90
17421;DHT22;8828;48.800;9.540;2023-03-05T13:46:26;6.50;99.90
17421;DHT22;8828;48.800;9.540;2023-03-05T13:48:55;6.60;99.90
17421;DHT22;8828;48.800;9.540;2023-03-05T13:51:41;6.60;99.90
17421;DHT22;8828;48.800;9.540;2023-03-05T13:54:13;6.60;99.90
17421;DHT22;8828;48.800;9.540;2023-03-05T13:56:54;6.50;99.90
17421;DHT22;8828;48.800;9.540;2023-03-05T13:59:24;6.60;99.90
17421;DHT22;8828;48.800;9.540;2023-03-05T14:01:55;6.60;99.90
17421;DHT22;8828;48.800;9.540;2023-03-05T14:04:25;6.60;99.90
17421;DHT22;8828;48.800;9.540;2023-03-05T14:06:56;6.70;99.90
17421;DHT22;8828;48.800;9.540;2023-03-05T14:09:27;6.70;99.90
17421;DHT22;8828;48.800;9.540;2023-03-05T14:11:58;6.70;99.90
17421;DHT22;8828;48.800;9.540;2023-03-05T14:14:28;6.80;99.90
17421;DHT22;8828;48.800;9.540;2023-03-05T14:17:20;6.80;99.90
17421;DHT22;8828;48.800;9.540;2023-03-05T14:19:48;6.80;99.90
17421;DHT22;8828;48.800;9.540;2023-03-05T14:22:29;6.70;99.90
17421;DHT22;8828;48.800;9.540;2023-03-05T14:24:57;6.70;99.90
17421;DHT22;8828;48.800;9.540;2023-03-05T14:27:35;6.70;99.90
17421;DHT22;8828;48.800;9.540;2023-03-05T14:30:04;6.60;99.90
17421;DHT22;8828;48.800;9.540;2023-03-05T14:32:35;6.60;99.90
17421;DHT22;8828;48.800;9.540;2023-03-05T14:35:15;6.60;99.90
17421;DHT22;8828;48.800;9.540;2023-03-05T14:37:45;6.60;99.90
17421;DHT22;8828;48.800;9.540;2023-03-05T14:40:19;6.50;99.90
17421;DHT22;8828;48.800;9.540;2023-03-05T14:42:50;6.50;99.90
17421;DHT22;8828;48.800;9.540;2023-03-05T14:45:21;6.50;99.90
17421;DHT22;8828;48.800;9.540;2023-03-05T14:47:51;6.50;99.90
17421;DHT22;8828;48.800;9.540;2023-03-05T14:50:21;6.50;99.90
17421;DHT22;8828;48.800;9.540;2023-03-05T14:52:52;6.50;99.90
17421;DHT22;8828;48.800;9.540;2023-03-05T14:55:23;6.50;99.90
17421;DHT22;8828;48.800;9.540;2023-03-05T14:57:56;6.50;99.90
17421;DHT22;8828;48.800;9.540;2023-03-05T15:00:25;6.50;99.90
17421;DHT22;8828;48.800;9.540;2023-03-05T15:02:55;6.50;99.90
17421;DHT22;8828;48.800;9.540;2023-03-05T15:05:25;6.50;99.90
17421;DHT22;8828;48.800;9.540;2023-03-05T15:07:55;6.50;99.90
17421;DHT22;8828;48.800;9.540;2023-03-05T15:10:24;6.40;99.90
17421;DHT22;8828;48.800;9.540;2023-03-05T15:12:52;6.40;99.90
17421;DHT22;8828;48.800;9.540;2023-03-05T15:15:21;6.40;99.90
17421;DHT22;8828;48.800;9.540;2023-03-05T15:17:50;6.40;99.90
17421;DHT22;8828;48.800;9.540;2023-03-05T15:20:25;6.40;99.90
17421;DHT22;8828;48.800;9.540;2023-03-05T15:22:54;6.30;99.90
17421;DHT22;8828;48.800;9.540;2023-03-05T15:25:23;6.40;99.90
17421;DHT22;8828;48.800;9.540;2023-03-05T15:27:52;6.40;99.90
17421;DHT22;8828;48.800;9.540;2023-03-05T15:30:23;6.40;99.90
17421;DHT22;8828;48.800;9.540;2023-03-05T15:32:52;6.30;99.90
17421;DHT22;8828;48.800;9.540;2023-03-05T15:35:23;6.30;99.90
17421;DHT22;8828;48.800;9.540;2023-03-05T15:37:52;6.30;99.90
17421;DHT22;8828;48.800;9.540;2023-03-05T15:40:20;6.30;99.90
17421;DHT22;8828;48.800;9.540;2023-03-05T15:42:50;6.20;99.90
17421;DHT22;8828;48.800;9.540;2023-03-05T15:45:18;6.20;99.90
17421;DHT22;8828;48.800;9.540;2023-03-05T15:47:47;6.20;99.90
17421;DHT22;8828;48.800;9.540;2023-03-05T15:50:16;6.20;99.90
17421;DHT22;8828;48.800;9.540;2023-03-05T15:52:46;6.20;99.90
17421;DHT22;8828;48.800;9.540;2023-03-05T15:55:14;6.20;99.90
17421;DHT22;8828;48.800;9.540;2023-03-05T15:57:45;6.20;99.90
17421;DHT22;8828;48.800;9.540;2023-03-05T16:00:16;6.10;99.90
17421;DHT22;8828;48.800;9.540;2023-03-05T16:02:44;6.10;99.90
17421;DHT22;8828;48.800;9.540;2023-03-05T16:05:12;6.10;99.90
17421;DHT22;8828;48.800;9.540;2023-03-05T16:07:43;6.10;99.90
17421;DHT22;8828;48.800;9.540;2023-03-05T16:10:16;6.10;99.90
17421;DHT22;8828;48.800;9.540;2023-03-05T16:12:48;6.10;99.90
17421;DHT22;8828;48.800;9.540;2023-03-05T16:15:18;6.00;99.90
17421;DHT22;8828;48.800;9.540;2023-03-05T16:17:49;6.10;99.90
17421;DHT22;8828;48.800;9.540;2023-03-05T16:20:20;6.00;99.90
17421;DHT22;8828;48.800;9.540;2023-03-05T16:22:48;6.00;99.90
17421;DHT22;8828;48.800;9.540;2023-03-05T16:25:17;6.00;99.90
17421;DHT22;8828;48.800;9.540;2023-03-05T16:27:47;6.00;99.90
17421;DHT22;8828;48.800;9.540;2023-03-05T16:30:16;6.00;99.90
17421;DHT22;8828;48.800;9.540;2023-03-05T16:32:44;6.00;99.90
17421;DHT22;8828;48.800;9.540;2023-03-05T16:35:12;6.00;99.90